Time;durP1;ratioP1;P1;durP2;ratioP2;P2;SDS_P1;SDS_P2;PMS_P1;PMS_P2;Temp;Humidity;BMP_temperature;BMP_pressure;BME280_temperature;BME280_humidity;BME280_pressure;Samples;Min_cycle;Max_cycle;Signal;HPM_P1;HPM_P2
2022/01/21 00:01:50;;;;;;;7.00;3.30;;;;;;;4.17;67.22;101506.53;10442304;28;20121;-56
2022/01/21 00:06:52;;;;;;;7.47;3.22;;;;;;;4.05;66.61;101496.41;10442138;28;20709;-56
2022/01/21 00:11:54;;;;;;;6.05;2.45;;;;;;;3.94;66.81;101502.06;10437869;28;20132;-58
2022/01/21 00:16:55;;;;;;;7.38;2.42;;;;;;;4.04;65.58;101497.34;10442236;28;20153;-56
2022/01/21 00:32:37;;;;;;;5.38;2.08;;;;;;;3.72;65.08;101508.03;10454737;22;20081;-56
2022/01/21 00:37:39;;;;;;;6.13;1.85;;;;;;;3.60;65.12;101507.53;10502887;22;20193;-64
2022/01/21 00:47:44;;;;;;;7.55;3.63;;;;;;;3.51;65.97;101512.19;10493753;28;20077;-64
2022/01/21 00:52:45;;;;;;;6.10;2.33;;;;;;;3.07;65.75;101529.31;10494450;28;20647;-64
2022/01/21 00:57:47;;;;;;;6.60;1.77;;;;;;;3.22;66.11;101534.13;10494576;28;20048;-64
2022/01/21 01:02:48;;;;;;;7.43;2.67;;;;;;;3.37;65.92;101532.81;10492735;28;20151;-64
2022/01/21 01:07:50;;;;;;;8.52;2.33;;;;;;;3.41;65.51;101542.34;10495371;28;20044;-64
2022/01/21 01:19:53;;;;;;;8.80;3.10;;;;;;;3.40;65.72;101524.81;10486190;28;20512;-65
2022/01/21 01:24:00;;;;;;;6.18;3.05;;;;;;;3.22;66.34;101541.16;10536263;28;20048;-64
2022/01/21 01:29:00;;;;;;;5.70;2.85;;;;;;;3.25;66.52;101541.91;10527417;28;20051;-63
2022/01/21 01:34:03;;;;;;;6.07;3.28;;;;;;;3.08;67.54;101546.78;10493780;28;20059;-63
2022/01/21 01:39:30;;;;;;;8.32;3.42;;;;;;;3.05;67.59;101550.41;10508467;28;20043;-63
2022/01/21 01:49:51;;;;;;;7.75;3.92;;;;;;;3.37;67.01;101551.22;10487565;28;20562;-63
2022/01/21 01:54:55;;;;;;;5.20;2.75;;;;;;;3.42;66.24;101569.50;10486217;28;20056;-63
2022/01/21 01:59:57;;;;;;;5.03;2.70;;;;;;;3.16;67.40;101557.97;10488718;28;20052;-64
2022/01/21 02:04:58;;;;;;;10.80;3.60;;;;;;;3.03;67.65;101557.47;10487312;28;20075;-63
2022/01/21 02:10:00;;;;;;;7.07;3.10;;;;;;;3.09;67.95;101552.06;10484931;28;20067;-63
2022/01/21 02:15:02;;;;;;;7.05;3.78;;;;;;;3.14;67.24;101555.41;10487532;28;20673;-65
2022/01/21 02:25:25;;;;;;;5.68;3.53;;;;;;;3.16;67.70;101553.56;10491209;28;20148;-63
2022/01/21 02:30:26;;;;;;;8.32;3.58;;;;;;;3.11;67.75;101552.84;10485722;28;20106;-64
2022/01/21 02:35:28;;;;;;;9.18;4.32;;;;;;;3.08;68.13;101560.84;10487470;28;20044;-63
2022/01/21 02:40:29;;;;;;;9.20;5.05;;;;;;;2.96;68.50;101550.66;10491218;28;20151;-63
2022/01/21 02:45:31;;;;;;;8.75;4.10;;;;;;;3.06;68.10;101573.16;10480265;28;20059;-64
2022/01/21 02:50:33;;;;;;;9.80;4.07;;;;;;;3.11;68.24;101568.63;10485976;28;20188;-64
2022/01/21 02:55:35;;;;;;;11.93;5.30;;;;;;;3.11;68.37;101547.59;10489196;28;21507;-63
2022/01/21 03:00:37;;;;;;;8.63;5.10;;;;;;;3.19;67.77;101548.22;10502547;28;20132;-64
2022/01/21 03:05:39;;;;;;;8.00;4.38;;;;;;;3.28;67.50;101547.09;10484322;28;20044;-64
2022/01/21 03:10:41;;;;;;;8.15;4.35;;;;;;;3.36;67.26;101547.75;10483494;28;20071;-64
2022/01/21 03:15:42;;;;;;;10.00;4.43;;;;;;;3.45;67.04;101562.41;10484491;28;20056;-63
2022/01/21 03:20:45;;;;;;;10.70;4.05;;;;;;;3.35;66.99;101560.94;10480669;28;20051;-63
2022/01/21 03:25:47;;;;;;;10.40;5.30;;;;;;;3.49;66.65;101566.66;10480746;28;20105;-63
2022/01/21 03:30:51;;;;;;;12.48;4.53;;;;;;;3.43;66.17;101566.84;10505766;28;20767;-65
2022/01/21 03:35:55;;;;;;;7.10;4.35;;;;;;;3.42;66.93;101574.78;10493068;28;20146;-64
2022/01/21 03:40:57;;;;;;;11.02;5.75;;;;;;;3.47;66.40;101584.28;10491312;28;20051;-64
2022/01/21 03:45:59;;;;;;;8.52;5.15;;;;;;;3.10;67.79;101595.00;10488337;28;20048;-64
2022/01/21 03:51:01;;;;;;;9.95;4.95;;;;;;;3.27;67.39;101591.88;10491896;28;20044;-64
2022/01/21 03:56:03;;;;;;;9.65;4.90;;;;;;;3.21;67.30;101592.06;10490671;28;20098;-64
2022/01/21 04:01:05;;;;;;;11.75;5.40;;;;;;;3.16;67.83;101590.41;10484926;28;20072;-64
2022/01/21 04:06:06;;;;;;;12.85;5.35;;;;;;;3.13;67.91;101585.25;10491391;28;20048;-64
2022/01/21 04:11:08;;;;;;;9.65;5.22;;;;;;;3.15;67.97;101604.50;10493914;28;20113;-63
2022/01/21 04:16:09;;;;;;;11.30;5.35;;;;;;;3.18;67.55;101599.16;10490298;28;20079;-63
2022/01/21 04:21:11;;;;;;;8.02;6.05;;;;;;;3.31;67.20;101594.38;10488463;28;20536;-63
2022/01/21 04:26:12;;;;;;;11.43;5.65;;;;;;;3.28;67.39;101596.25;10487779;28;20474;-63
2022/01/21 04:31:14;;;;;;;11.10;5.47;;;;;;;3.09;68.07;101615.19;10493867;28;20125;-64
2022/01/21 04:36:16;;;;;;;9.52;5.53;;;;;;;3.29;67.94;101611.16;10485053;28;20040;-63
2022/01/21 04:52:03;;;;;;;10.55;5.72;;;;;;;3.51;66.75;101641.22;10493901;28;20192;-64
2022/01/21 04:57:06;;;;;;;7.53;5.30;;;;;;;3.29;66.67;101642.72;10491628;28;20063;-65
2022/01/21 05:02:08;;;;;;;13.90;5.95;;;;;;;3.25;67.37;101648.97;10488200;28;20473;-64
2022/01/21 05:07:13;;;;;;;8.68;5.35;;;;;;;3.28;66.84;101655.00;10493208;28;20048;-64
2022/01/21 05:12:19;;;;;;;10.17;5.60;;;;;;;3.36;66.83;101644.25;10484816;28;20048;-63
2022/01/21 05:17:22;;;;;;;14.27;5.43;;;;;;;3.30;66.88;101642.69;10484005;28;20099;-65
2022/01/21 05:22:23;;;;;;;13.10;6.03;;;;;;;3.32;66.75;101650.53;10487203;28;20846;-64
2022/01/21 05:27:25;;;;;;;11.93;5.07;;;;;;;3.28;66.45;101647.09;10495070;28;20493;-65
2022/01/21 05:32:27;;;;;;;6.97;5.28;;;;;;;3.30;66.28;101647.06;10492398;28;20455;-64
2022/01/21 05:37:28;;;;;;;10.15;6.10;;;;;;;3.30;66.52;101649.69;10493454;28;20129;-64
2022/01/21 05:42:33;;;;;;;8.13;5.07;;;;;;;3.45;65.95;101653.66;10495231;28;20126;-64
2022/01/21 05:47:34;;;;;;;13.32;6.15;;;;;;;3.43;65.77;101637.91;10492657;28;20086;-64
2022/01/21 05:52:41;;;;;;;15.43;6.57;;;;;;;3.41;66.03;101652.91;10493719;28;20097;-64
2022/01/21 05:57:43;;;;;;;12.07;6.28;;;;;;;3.32;66.46;101647.91;10480366;28;20161;-64
2022/01/21 06:02:44;;;;;;;11.23;6.25;;;;;;;3.39;66.75;101631.00;10497779;28;20390;-64
2022/01/21 06:07:46;;;;;;;12.98;7.43;;;;;;;3.45;66.08;101651.91;10497381;28;20048;-64
2022/01/21 06:12:48;;;;;;;10.13;7.03;;;;;;;3.45;66.47;101658.94;10491638;28;21708;-64
2022/01/21 06:17:50;;;;;;;11.40;6.65;;;;;;;3.47;66.50;101660.63;10466238;28;20107;-63
2022/01/21 06:22:51;;;;;;;11.15;6.70;;;;;;;3.46;66.40;101645.72;10467095;28;20136;-63
2022/01/21 06:27:53;;;;;;;9.00;6.72;;;;;;;3.49;66.19;101674.59;10477679;28;20068;-63
2022/01/21 06:32:54;;;;;;;11.27;6.82;;;;;;;3.54;66.36;101674.47;10475996;28;20107;-63
2022/01/21 06:37:56;;;;;;;11.43;7.18;;;;;;;3.49;66.83;101666.69;10465293;28;20166;-64
2022/01/21 06:43:02;;;;;;;13.20;7.35;;;;;;;3.51;66.67;101683.34;10467836;28;20056;-65
2022/01/21 06:48:03;;;;;;;16.92;9.05;;;;;;;3.50;66.76;101671.06;10481506;28;20141;-64
2022/01/21 06:53:05;;;;;;;13.75;8.02;;;;;;;3.51;66.95;101685.97;10477665;28;20597;-64
2022/01/21 06:58:07;;;;;;;13.70;8.40;;;;;;;3.47;67.33;101673.78;10464028;28;20884;-64
2022/01/21 07:03:08;;;;;;;13.77;7.70;;;;;;;3.52;67.13;101676.28;10472707;28;20083;-63
2022/01/21 07:08:10;;;;;;;15.57;7.65;;;;;;;3.50;67.56;101694.75;10473207;28;20040;-64
2022/01/21 07:13:12;;;;;;;15.57;8.68;;;;;;;3.62;67.43;101693.56;10478956;28;20067;-64
2022/01/21 07:18:14;;;;;;;13.27;8.15;;;;;;;3.68;67.06;101703.06;10475689;28;20036;-64
2022/01/21 07:23:16;;;;;;;13.13;8.02;;;;;;;3.75;66.96;101709.84;10475543;28;20083;-63
2022/01/21 07:28:17;;;;;;;17.50;7.15;;;;;;;3.76;66.53;101693.16;10493182;28;20123;-65
2022/01/21 07:33:20;;;;;;;15.60;8.68;;;;;;;3.75;66.47;101707.22;10506513;28;20048;-64
2022/01/21 07:38:21;;;;;;;13.48;7.60;;;;;;;3.67;66.81;101714.50;10484150;28;20429;-64
2022/01/21 07:43:23;;;;;;;14.38;8.50;;;;;;;3.82;66.38;101724.56;10473742;28;20052;-64
2022/01/21 07:48:25;;;;;;;10.63;7.63;;;;;;;3.69;66.39;101731.09;10475475;28;20063;-65
2022/01/21 07:53:26;;;;;;;10.35;7.75;;;;;;;3.46;67.22;101735.22;10471055;28;20080;-67
2022/01/21 07:58:28;;;;;;;14.48;8.77;;;;;;;3.61;67.87;101752.38;10474813;28;20130;-64
2022/01/21 08:03:29;;;;;;;14.30;8.88;;;;;;;3.52;67.29;101735.06;10492880;28;20105;-64
2022/01/21 08:08:31;;;;;;;16.63;9.93;;;;;;;3.78;67.16;101725.56;10516500;28;20044;-65
2022/01/21 08:13:32;;;;;;;15.82;9.98;;;;;;;3.83;67.06;101728.94;10518271;28;20077;-65
2022/01/21 08:18:36;;;;;;;12.57;9.25;;;;;;;3.58;68.11;101714.75;10510418;28;20028;-64
2022/01/21 08:23:37;;;;;;;13.18;8.07;;;;;;;3.62;67.51;101719.00;10499383;28;20052;-65
2022/01/21 08:28:38;;;;;;;10.35;8.75;;;;;;;3.82;67.32;101711.41;10490783;28;20185;-65
2022/01/21 08:33:40;;;;;;;16.48;9.75;;;;;;;3.57;68.02;101720.91;10488800;28;20498;-67
2022/01/21 08:38:41;;;;;;;10.00;7.70;;;;;;;3.67;68.52;101717.97;10488974;28;20117;-65
2022/01/21 08:43:43;;;;;;;13.32;9.10;;;;;;;4.11;66.99;101712.31;10486083;28;20075;-64
2022/01/21 08:48:45;;;;;;;16.10;9.55;;;;;;;4.32;65.92;101725.75;10478886;28;20509;-64
2022/01/21 08:53:46;;;;;;;20.55;8.90;;;;;;;4.45;65.52;101721.84;10467887;28;20797;-65
2022/01/21 08:58:49;;;;;;;16.00;7.68;;;;;;;4.25;65.01;101725.94;10479695;28;20072;-65
2022/01/21 09:03:51;;;;;;;11.50;8.00;;;;;;;4.47;65.33;101730.53;10469973;28;20063;-65
2022/01/21 09:08:52;;;;;;;14.07;8.15;;;;;;;4.48;65.18;101740.19;10466009;28;20082;-64
2022/01/21 09:13:54;;;;;;;14.07;7.88;;;;;;;4.43;64.92;101739.47;10468970;28;20126;-63
2022/01/21 09:18:58;;;;;;;10.68;7.40;;;;;;;4.18;66.14;101756.03;10469515;28;20794;-64
2022/01/21 09:24:05;;;;;;;8.82;7.15;;;;;;;4.13;66.31;101746.53;10463712;28;20401;-64
2022/01/21 09:29:07;;;;;;;13.32;8.40;;;;;;;4.33;64.88;101743.31;10464209;28;20039;-63
2022/01/21 09:34:09;;;;;;;12.52;8.57;;;;;;;4.53;64.72;101730.34;10461849;28;20160;-64
2022/01/21 09:39:11;;;;;;;15.63;7.97;;;;;;;4.81;63.75;101745.31;10466017;28;21106;-63
2022/01/21 09:44:16;;;;;;;11.32;7.80;;;;;;;4.93;63.77;101742.25;10470999;28;20224;-65
2022/01/21 09:54:27;;;;;;;14.50;9.05;;;;;;;5.42;62.87;101749.41;10465508;28;20052;-64
2022/01/21 09:59:31;;;;;;;14.30;8.93;;;;;;;5.48;63.22;101763.28;10457152;28;20568;-64
2022/01/21 10:04:44;;;;;;;11.38;8.05;;;;;;;5.27;63.11;101759.59;10459017;28;20152;-63
2022/01/21 10:09:47;;;;;;;14.13;8.93;;;;;;;4.98;65.13;101757.94;10458413;28;20515;-65
2022/01/21 10:14:49;;;;;;;14.68;8.63;;;;;;;5.18;64.37;101770.50;10461818;28;20052;-65
2022/01/21 10:20:16;;;;;;;10.55;7.28;;;;;;;4.76;65.44;101774.47;10456564;28;20052;-65
2022/01/21 10:25:18;;;;;;;11.10;7.38;;;;;;;4.95;64.82;101763.31;10458599;28;20032;-64
2022/01/21 10:30:25;;;;;;;12.05;7.35;;;;;;;5.02;64.84;101767.47;10462742;28;20164;-65
2022/01/21 10:35:32;;;;;;;11.57;8.27;;;;;;;5.78;62.52;101749.00;10464272;28;20074;-64
2022/01/21 10:40:34;;;;;;;11.07;7.32;;;;;;;6.89;59.26;101742.09;10481398;28;20124;-65
2022/01/21 10:45:54;;;;;;;10.73;8.02;;;;;;;7.86;55.89;101737.06;10471501;28;20052;-64
2022/01/21 10:51:23;;;;;;;10.40;6.53;;;;;;;13.19;42.06;101727.50;10466298;28;20052;-64
2022/01/21 10:56:26;;;;;;;7.65;6.20;;;;;;;14.66;38.95;101725.22;10470312;28;20048;-65
2022/01/21 11:01:29;;;;;;;8.38;6.35;;;;;;;14.57;38.53;101723.19;10467162;28;20565;-66
2022/01/21 11:06:46;;;;;;;;;;;;;;;11.25;42.94;101730.00;10467394;28;20135;-65
2022/01/21 11:12:05;;;;;;;4.88;4.38;;;;;;;8.96;48.33;101719.47;10467395;28;20013;-65
2022/01/21 11:17:09;;;;;;;10.18;6.38;;;;;;;9.09;50.04;101717.06;10469788;28;20102;-65
2022/01/21 11:22:24;;;;;;;9.57;5.63;;;;;;;10.06;47.56;101712.81;10468117;28;20052;-65
2022/01/21 11:27:26;;;;;;;9.15;6.22;;;;;;;8.90;49.79;101714.47;10468008;28;20630;-64
2022/01/21 11:32:27;;;;;;;10.13;6.15;;;;;;;8.10;52.42;101725.31;10468954;28;20155;-64
2022/01/21 11:37:29;;;;;;;8.85;5.97;;;;;;;7.44;54.23;101728.31;10467567;28;20059;-65
2022/01/21 11:42:31;;;;;;;9.38;6.13;;;;;;;7.05;55.57;101737.91;10469368;28;20071;-65
2022/01/21 11:47:50;;;;;;;7.03;6.32;;;;;;;7.36;55.62;101731.31;10470343;28;20405;-64
2022/01/21 11:52:52;;;;;;;12.63;6.47;;;;;;;6.41;58.41;101727.28;10467979;28;20117;-64
2022/01/21 11:58:10;;;;;;;9.85;5.95;;;;;;;5.63;59.71;101724.91;10469992;28;20156;-64
2022/01/21 12:03:11;;;;;;;10.00;6.43;;;;;;;6.07;60.32;101715.41;10468431;28;20129;-65
2022/01/21 12:08:13;;;;;;;8.50;5.22;;;;;;;10.01;49.66;101700.69;10475691;28;20485;-65
2022/01/21 12:13:21;;;;;;;7.78;5.32;;;;;;;11.00;46.84;101706.63;10464469;28;20137;-64
2022/01/21 12:23:44;;;;;;;5.70;4.07;;;;;;;18.57;30.56;101688.53;10466998;28;20063;-66
2022/01/21 12:28:47;;;;;;;5.60;4.18;;;;;;;21.75;26.02;101687.13;10466662;28;20101;-66
2022/01/21 12:44:04;;;;;;;5.68;3.28;;;;;;;14.98;34.14;101687.94;10489072;28;20678;-72
2022/01/21 12:49:31;;;;;;;5.68;3.47;;;;;;;12.31;39.01;101695.94;10472066;28;20052;-72
2022/01/21 13:00:08;;;;;;;4.50;2.72;;;;;;;10.31;43.41;101673.31;10490047;28;20048;-71
2022/01/21 13:05:10;;;;;;;5.10;2.33;;;;;;;9.38;45.26;101675.69;10484236;28;20067;-68
2022/01/21 13:10:27;;;;;;;6.75;3.25;;;;;;;9.35;45.19;101670.53;10489757;28;20127;-67
2022/01/21 13:15:50;;;;;;;3.72;2.63;;;;;;;8.78;46.51;101669.03;10472487;28;20052;-69
2022/01/21 13:20:55;;;;;;;4.82;2.80;;;;;;;8.19;48.26;101671.00;10486923;28;21029;-69
2022/01/21 13:26:19;;;;;;;4.95;3.35;;;;;;;7.57;51.13;101681.81;10488164;28;20109;-68
2022/01/21 13:31:21;;;;;;;5.38;4.00;;;;;;;7.39;52.53;101680.84;10465348;28;20039;-67
2022/01/21 13:36:42;;;;;;;6.30;4.07;;;;;;;7.01;54.22;101675.44;10474209;28;20048;-68
2022/01/21 13:41:49;;;;;;;9.07;3.83;;;;;;;7.32;53.69;101666.13;10486590;28;20509;-68
2022/01/21 13:46:51;;;;;;;6.88;3.40;;;;;;;7.85;52.64;101661.13;10473254;28;20080;-70
2022/01/21 13:52:00;;;;;;;5.22;2.63;;;;;;;7.42;53.76;101664.78;10492283;28;20135;-69
2022/01/21 13:57:04;;;;;;;7.68;3.45;;;;;;;7.42;53.83;101661.31;10490968;28;20788;-68
2022/01/21 14:02:10;;;;;;;6.00;2.90;;;;;;;7.53;53.66;101655.50;10491334;28;20589;-69
2022/01/21 14:07:33;;;;;;;5.30;2.60;;;;;;;7.05;54.49;101676.16;10439726;28;20045;-72
2022/01/21 14:12:35;;;;;;;4.95;2.30;;;;;;;6.75;55.76;101670.38;10472976;28;20194;-69
2022/01/21 14:17:36;;;;;;;5.85;2.85;;;;;;;6.93;55.21;101661.66;10497226;28;20060;-70
2022/01/21 14:22:47;;;;;;;5.00;3.30;;;;;;;6.72;55.90;101659.00;10466505;28;20075;-69
2022/01/21 14:27:51;;;;;;;6.05;3.42;;;;;;;6.78;56.13;101664.94;10472607;28;20097;-70
2022/01/21 14:32:54;;;;;;;4.05;2.47;;;;;;;6.73;55.75;101666.00;10471899;28;20076;-69
2022/01/21 14:38:03;;;;;;;5.35;3.08;;;;;;;6.55;56.53;101666.78;10478272;28;20167;-67
2022/01/21 14:43:11;;;;;;;4.88;3.10;;;;;;;6.70;57.86;101673.22;10445302;28;20052;-68
2022/01/21 14:48:23;;;;;;;4.97;3.35;;;;;;;6.82;57.34;101669.19;10466840;28;20221;-70
2022/01/21 14:53:24;;;;;;;5.00;2.55;;;;;;;6.52;57.05;101669.53;10469722;28;20417;-70
2022/01/21 14:58:27;;;;;;;4.18;2.88;;;;;;;5.95;58.02;101662.03;10459290;28;20499;-70
2022/01/21 15:03:31;;;;;;;5.80;2.70;;;;;;;5.90;58.39;101663.13;10487464;28;20047;-68
2022/01/21 15:08:39;;;;;;;4.85;2.50;;;;;;;5.52;59.37;101668.94;10471530;28;20131;-68
2022/01/21 15:19:13;;;;;;;9.57;4.30;;;;;;;5.93;60.32;101655.97;10502486;28;20055;-71
2022/01/21 15:24:16;;;;;;;9.40;4.07;;;;;;;5.75;61.51;101660.16;10473960;28;20053;-71
2022/01/21 15:29:20;;;;;;;6.38;4.47;;;;;;;5.64;61.52;101655.28;10441155;28;20048;-70
2022/01/21 15:34:24;;;;;;;6.28;4.53;;;;;;;5.61;62.55;101673.88;10446359;28;20059;-68
2022/01/21 15:39:25;;;;;;;7.20;5.07;;;;;;;5.76;62.57;101659.22;10490421;28;20051;-69
2022/01/21 15:44:28;;;;;;;10.23;6.70;;;;;;;5.97;62.48;101665.50;10489397;28;20203;-70
2022/01/21 15:49:29;;;;;;;9.18;7.45;;;;;;;6.04;62.23;101660.00;10530217;28;20083;-70
2022/01/21 15:54:30;;;;;;;8.80;6.00;;;;;;;5.99;62.57;101674.25;10517342;28;20070;-70
2022/01/21 15:59:32;;;;;;;7.53;6.72;;;;;;;6.06;62.70;101663.44;10527963;28;20085;-69
2022/01/21 16:04:34;;;;;;;8.73;6.15;;;;;;;5.91;63.62;101655.13;10496808;28;20075;-67
2022/01/21 16:09:36;;;;;;;9.15;7.40;;;;;;;5.99;63.45;101668.09;10493905;28;20147;-67
2022/01/21 16:14:37;;;;;;;11.70;8.07;;;;;;;5.99;63.97;101665.44;10476139;28;20588;-69
2022/01/21 16:19:38;;;;;;;14.07;8.07;;;;;;;5.85;64.06;101673.88;10494982;28;20131;-68
2022/01/21 16:24:42;;;;;;;11.35;7.47;;;;;;;5.62;65.06;101678.25;10480496;28;20048;-68
2022/01/21 16:29:48;;;;;;;10.25;6.28;;;;;;;5.67;65.14;101672.78;10489385;28;20058;-70
2022/01/21 16:34:53;;;;;;;10.65;6.55;;;;;;;5.61;65.74;101680.94;10498928;28;20354;-71
2022/01/21 16:39:58;;;;;;;11.57;6.90;;;;;;;5.79;65.34;101674.13;10414144;28;20054;-69
2022/01/21 16:45:02;;;;;;;10.93;6.45;;;;;;;5.68;65.81;101690.38;10430906;28;20059;-70
2022/01/21 16:50:05;;;;;;;10.73;5.63;;;;;;;5.82;65.84;101681.94;10475664;28;20557;-71
2022/01/21 16:55:09;;;;;;;6.57;4.60;;;;;;;5.89;65.59;101672.84;10510395;28;20056;-72
2022/01/21 17:00:11;;;;;;;12.02;6.25;;;;;;;5.88;65.56;101671.13;10485108;28;20044;-70
2022/01/21 17:05:13;;;;;;;10.45;5.70;;;;;;;5.72;66.17;101664.69;10489991;28;20048;-71
2022/01/21 17:10:14;;;;;;;12.50;5.53;;;;;;;5.73;66.79;101672.56;10491224;28;20153;-71
2022/01/21 17:15:15;;;;;;;9.70;4.43;;;;;;;5.52;67.41;101674.22;10490024;28;20142;-69
2022/01/21 17:20:17;;;;;;;10.13;4.60;;;;;;;5.62;67.59;101678.25;10491101;28;20040;-71
2022/01/21 17:25:20;;;;;;;10.07;4.32;;;;;;;5.56;67.74;101674.97;10466045;28;20131;-69
2022/01/21 17:30:22;;;;;;;7.13;4.13;;;;;;;5.59;67.06;101665.16;10474462;28;20056;-72
2022/01/21 17:35:24;;;;;;;6.70;3.90;;;;;;;5.63;66.89;101648.28;10492488;28;20059;-71
2022/01/21 17:40:28;;;;;;;5.75;4.20;;;;;;;5.60;67.47;101663.38;10462719;28;20048;-70
2022/01/21 17:45:29;;;;;;;6.18;3.40;;;;;;;5.64;67.49;101660.59;10488872;28;20060;-69
2022/01/21 17:50:33;;;;;;;8.23;3.42;;;;;;;5.62;67.68;101654.47;10458766;28;20048;-70
2022/01/21 17:55:34;;;;;;;6.25;3.78;;;;;;;5.68;68.16;101660.47;10475147;28;20454;-70
2022/01/21 18:00:37;;;;;;;6.40;3.67;;;;;;;5.46;69.12;101663.88;10481559;28;20143;-71
2022/01/21 18:05:40;;;;;;;7.88;3.85;;;;;;;5.49;69.64;101666.41;10507704;28;20067;-69
2022/01/21 18:16:24;;;;;;;9.35;3.70;;;;;;;5.38;71.13;101673.88;10377976;28;20052;-70
2022/01/21 18:21:26;;;;;;;10.30;4.32;;;;;;;5.31;71.68;101666.19;10474170;28;20126;-71
2022/01/21 18:26:28;;;;;;;5.80;3.33;;;;;;;5.20;72.67;101656.91;10474756;28;20494;-72
2022/01/21 18:31:30;;;;;;;5.90;3.28;;;;;;;5.14;73.53;101668.53;10487676;28;20139;-69
2022/01/21 18:36:32;;;;;;;6.57;3.72;;;;;;;5.11;74.58;101658.09;10487402;28;20067;-72
2022/01/21 18:41:34;;;;;;;5.75;3.63;;;;;;;5.19;73.95;101650.75;10488580;28;20142;-71
2022/01/21 18:46:38;;;;;;;5.22;3.60;;;;;;;5.28;74.08;101647.81;10487755;28;20613;-71
2022/01/21 18:51:42;;;;;;;6.45;3.90;;;;;;;5.16;74.94;101658.78;10473126;28;20171;-67
2022/01/21 18:56:44;;;;;;;7.28;3.92;;;;;;;5.13;75.29;101661.53;10470702;28;20054;-70
2022/01/21 19:01:46;;;;;;;7.13;4.78;;;;;;;5.04;75.85;101662.72;10493345;28;20138;-70
2022/01/21 19:06:52;;;;;;;7.78;4.93;;;;;;;5.16;75.97;101661.41;10500209;28;20058;-71
2022/01/21 19:11:54;;;;;;;6.25;4.07;;;;;;;5.21;75.33;101661.25;10495944;28;20043;-71
2022/01/21 19:16:58;;;;;;;7.35;4.00;;;;;;;5.18;75.65;101670.16;10495647;28;20050;-72
2022/01/21 19:22:06;;;;;;;6.43;4.40;;;;;;;5.19;75.92;101668.38;10462484;28;20162;-69
2022/01/21 19:27:08;;;;;;;6.00;4.13;;;;;;;5.24;75.68;101664.66;10500363;28;20578;-71
2022/01/21 19:32:14;;;;;;;8.40;4.72;;;;;;;5.23;75.91;101668.22;10498493;28;20056;-71
2022/01/21 19:37:16;;;;;;;6.47;4.72;;;;;;;5.24;75.87;101669.94;10455706;28;20690;-73
2022/01/21 19:42:17;;;;;;;5.95;4.65;;;;;;;5.29;75.70;101677.69;10482748;28;20582;-69
2022/01/21 19:47:21;;;;;;;6.38;4.70;;;;;;;5.24;75.71;101684.91;10482781;28;20052;-70
2022/01/21 19:52:23;;;;;;;7.33;4.73;;;;;;;5.34;75.52;101685.47;10496746;28;20063;-70
2022/01/21 19:57:31;;;;;;;6.82;4.53;;;;;;;5.31;75.65;101682.03;10501658;28;21024;-70
2022/01/21 20:08:31;;;;;;;5.82;4.10;;;;;;;5.46;75.06;101700.84;10496913;28;20043;-72
2022/01/21 20:13:04;;;;;;;6.93;5.30;;;;;;;5.46;74.69;101695.56;10479185;28;20157;-70
2022/01/21 20:18:17;;;;;;;6.97;5.30;;;;;;;5.60;74.55;101692.41;10477968;28;20143;-71
2022/01/21 20:23:18;;;;;;;8.30;5.50;;;;;;;5.50;75.18;101694.56;10493716;28;20108;-70
2022/01/21 20:28:20;;;;;;;8.40;6.07;;;;;;;5.49;75.28;101674.34;10494115;28;20245;-70
2022/01/21 20:33:23;;;;;;;7.18;6.53;;;;;;;5.53;75.61;101683.88;10473940;28;20558;-71
2022/01/21 20:38:26;;;;;;;9.43;7.63;;;;;;;5.46;76.22;101688.53;10478957;28;20147;-73
2022/01/21 20:43:28;;;;;;;9.38;8.05;;;;;;;5.64;76.00;101689.63;10494075;28;20068;-74
2022/01/21 20:48:31;;;;;;;9.50;7.88;;;;;;;5.57;75.94;101672.28;10489547;28;20059;-72
2022/01/21 20:53:34;;;;;;;11.35;9.75;;;;;;;5.70;75.57;101656.81;10479178;28;20122;-70
2022/01/21 20:58:38;;;;;;;9.75;8.02;;;;;;;5.78;75.47;101653.88;10493157;28;20119;-72
2022/01/21 21:03:40;;;;;;;12.43;9.27;;;;;;;5.78;75.76;101648.59;10470830;28;20055;-73
2022/01/21 21:08:41;;;;;;;10.52;9.43;;;;;;;5.81;75.44;101645.84;10470815;28;20564;-71
2022/01/21 21:13:45;;;;;;;13.45;9.20;;;;;;;5.79;75.47;101642.41;10493107;28;20054;-72
2022/01/21 21:21:06;;;;;;;10.50;9.25;;;;;;;5.81;75.56;101645.84;10474585;28;20062;-70
2022/01/21 21:24:35;;;;;;;10.40;8.05;;;;;;;5.76;75.56;101650.44;10491257;28;20063;-70
2022/01/21 22:23:53;;;;;;;8.20;6.63;;;;;;;5.80;75.51;101625.63;10433818;28;20140;-72
2022/01/21 23:00:18;;;;;;;8.90;8.00;;;;;;;5.87;75.34;101611.28;10448699;28;20520;-72
2022/01/21 23:05:24;;;;;;;11.18;8.75;;;;;;;5.89;75.55;101608.56;10454831;28;20044;-72
2022/01/21 23:10:30;;;;;;;11.32;7.90;;;;;;;5.96;75.41;101602.97;10513283;28;20173;-73
2022/01/21 23:15:34;;;;;;;10.45;8.23;;;;;;;6.01;75.04;101614.25;10498435;28;20137;-72
2022/01/21 23:20:36;;;;;;;8.57;7.68;;;;;;;6.04;74.84;101623.00;10499046;28;20744;-71
2022/01/21 23:26:02;;;;;;;10.07;7.97;;;;;;;5.97;74.99;101617.94;10422714;28;20069;-72
2022/01/21 23:31:03;;;;;;;10.30;7.90;;;;;;;5.98;74.54;101614.38;10492611;28;20064;-72
2022/01/21 23:36:05;;;;;;;9.23;7.30;;;;;;;6.05;74.43;101611.47;10480100;28;20040;-73
2022/01/21 23:41:11;;;;;;;9.00;6.68;;;;;;;6.18;74.11;101607.44;10413790;28;20167;-71
2022/01/21 23:46:14;;;;;;;7.93;6.57;;;;;;;6.21;73.21;101604.66;10468141;28;20047;-72
2022/01/21 23:51:19;;;;;;;7.03;6.30;;;;;;;6.09;73.39;101594.59;10511667;28;20052;-71
2022/01/21 23:56:21;;;;;;;;;;;;;;;6.17;73.46;101588.06;10490489;28;20048;-71
